sensor_id;sensor_type;location;lat;lon;timestamp;pressure;altitude;pressure_sealevel;temperature;humidity
51315;BME280;65787;59.922;10.742;2023-11-22T00:01:50;101942.22;;;6.20;45.20
51315;BME280;65787;59.922;10.742;2023-11-22T00:04:15;101940.25;;;6.22;45.28
51315;BME280;65787;59.922;10.742;2023-11-22T00:06:42;101950.66;;;6.04;45.43
51315;BME280;65787;59.922;10.742;2023-11-22T00:09:08;101952.81;;;6.10;45.26
51315;BME280;65787;59.922;10.742;2023-11-22T00:11:34;101936.44;;;6.15;45.52
51315;BME280;65787;59.922;10.742;2023-11-22T00:13:59;101944.16;;;6.18;45.25
51315;BME280;65787;59.922;10.742;2023-11-22T00:16:25;101948.09;;;6.35;45.39
51315;BME280;65787;59.922;10.742;2023-11-22T00:18:50;101944.22;;;6.39;45.33
51315;BME280;65787;59.922;10.742;2023-11-22T00:21:15;101942.97;;;6.43;44.98
51315;BME280;65787;59.922;10.742;2023-11-22T00:23:41;101948.50;;;6.30;45.38
51315;BME280;65787;59.922;10.742;2023-11-22T00:26:06;101958.44;;;6.28;45.79
51315;BME280;65787;59.922;10.742;2023-11-22T00:28:32;101961.78;;;6.42;44.99
51315;BME280;65787;59.922;10.742;2023-11-22T00:30:57;101955.25;;;6.55;44.45
51315;BME280;65787;59.922;10.742;2023-11-22T00:33:23;101958.50;;;6.59;44.17
51315;BME280;65787;59.922;10.742;2023-11-22T00:35:48;101959.56;;;6.47;45.14
51315;BME280;65787;59.922;10.742;2023-11-22T00:38:14;101958.84;;;6.45;44.82
51315;BME280;65787;59.922;10.742;2023-11-22T00:40:39;101955.53;;;6.52;44.54
51315;BME280;65787;59.922;10.742;2023-11-22T00:43:04;101944.91;;;6.41;44.54
51315;BME280;65787;59.922;10.742;2023-11-22T00:45:29;101950.25;;;6.41;44.62
51315;BME280;65787;59.922;10.742;2023-11-22T00:47:55;101956.69;;;6.38;45.04
51315;BME280;65787;59.922;10.742;2023-11-22T00:50:20;101949.78;;;6.36;44.60
51315;BME280;65787;59.922;10.742;2023-11-22T00:52:46;101943.75;;;6.34;44.09
51315;BME280;65787;59.922;10.742;2023-11-22T00:55:11;101926.63;;;6.36;45.01
51315;BME280;65787;59.922;10.742;2023-11-22T00:57:37;101930.91;;;6.28;44.44
51315;BME280;65787;59.922;10.742;2023-11-22T01:00:02;101915.75;;;6.28;44.10
51315;BME280;65787;59.922;10.742;2023-11-22T01:02:29;101905.56;;;6.33;44.39
51315;BME280;65787;59.922;10.742;2023-11-22T01:04:55;101905.28;;;6.36;44.31
51315;BME280;65787;59.922;10.742;2023-11-22T01:07:20;101887.38;;;6.48;44.62
51315;BME280;65787;59.922;10.742;2023-11-22T01:09:45;101884.38;;;6.42;44.12
51315;BME280;65787;59.922;10.742;2023-11-22T01:12:11;101878.78;;;6.45;44.35
51315;BME280;65787;59.922;10.742;2023-11-22T01:14:38;101872.78;;;6.31;44.16
51315;BME280;65787;59.922;10.742;2023-11-22T01:17:03;101874.16;;;6.26;43.96
51315;BME280;65787;59.922;10.742;2023-11-22T01:19:28;101860.31;;;6.32;44.25
51315;BME280;65787;59.922;10.742;2023-11-22T01:21:54;101857.53;;;6.33;44.42
51315;BME280;65787;59.922;10.742;2023-11-22T01:24:19;101840.59;;;6.23;44.76
51315;BME280;65787;59.922;10.742;2023-11-22T01:26:44;101842.72;;;6.29;44.97
51315;BME280;65787;59.922;10.742;2023-11-22T01:29:10;101845.16;;;6.32;44.97
51315;BME280;65787;59.922;10.742;2023-11-22T01:31:37;101824.47;;;6.25;45.33
51315;BME280;65787;59.922;10.742;2023-11-22T01:34:02;101819.00;;;6.26;44.92
51315;BME280;65787;59.922;10.742;2023-11-22T01:36:29;101817.75;;;6.30;44.55
51315;BME280;65787;59.922;10.742;2023-11-22T01:38:54;101810.13;;;6.26;44.24
51315;BME280;65787;59.922;10.742;2023-11-22T01:41:21;101810.00;;;6.27;44.57
51315;BME280;65787;59.922;10.742;2023-11-22T01:43:46;101812.97;;;6.24;44.86
51315;BME280;65787;59.922;10.742;2023-11-22T01:46:20;101802.66;;;6.19;45.45
51315;BME280;65787;59.922;10.742;2023-11-22T01:48:46;101800.13;;;6.18;44.40
51315;BME280;65787;59.922;10.742;2023-11-22T01:51:12;101802.28;;;6.24;44.80
51315;BME280;65787;59.922;10.742;2023-11-22T01:53:37;101787.78;;;6.17;45.48
51315;BME280;65787;59.922;10.742;2023-11-22T01:56:02;101770.09;;;6.16;45.01
51315;BME280;65787;59.922;10.742;2023-11-22T01:58:28;101766.44;;;6.17;45.36
51315;BME280;65787;59.922;10.742;2023-11-22T02:00:53;101760.16;;;6.28;45.20
51315;BME280;65787;59.922;10.742;2023-11-22T02:03:19;101750.47;;;6.27;45.15
51315;BME280;65787;59.922;10.742;2023-11-22T02:05:44;101731.81;;;6.27;45.19
51315;BME280;65787;59.922;10.742;2023-11-22T02:08:10;101717.91;;;6.23;45.09
51315;BME280;65787;59.922;10.742;2023-11-22T02:10:36;101717.75;;;6.25;45.00
51315;BME280;65787;59.922;10.742;2023-11-22T02:13:04;101718.72;;;6.24;45.38
51315;BME280;65787;59.922;10.742;2023-11-22T02:15:32;101724.94;;;6.24;45.20
51315;BME280;65787;59.922;10.742;2023-11-22T02:17:57;101720.47;;;6.34;45.01
51315;BME280;65787;59.922;10.742;2023-11-22T02:20:22;101698.41;;;6.32;45.78
51315;BME280;65787;59.922;10.742;2023-11-22T02:22:48;101697.16;;;6.36;46.01
51315;BME280;65787;59.922;10.742;2023-11-22T02:25:13;101689.47;;;6.43;45.31
51315;BME280;65787;59.922;10.742;2023-11-22T02:27:40;101693.53;;;6.47;45.44
51315;BME280;65787;59.922;10.742;2023-11-22T02:30:06;101695.25;;;6.48;45.76
51315;BME280;65787;59.922;10.742;2023-11-22T02:32:31;101691.31;;;6.52;45.83
51315;BME280;65787;59.922;10.742;2023-11-22T02:34:56;101682.88;;;6.47;45.87
51315;BME280;65787;59.922;10.742;2023-11-22T02:37:22;101676.00;;;6.54;45.84
51315;BME280;65787;59.922;10.742;2023-11-22T02:40:35;101687.25;;;6.58;45.13
51315;BME280;65787;59.922;10.742;2023-11-22T02:42:35;101664.78;;;6.61;45.61
51315;BME280;65787;59.922;10.742;2023-11-22T02:45:01;101672.91;;;6.59;45.68
51315;BME280;65787;59.922;10.742;2023-11-22T02:47:26;101669.13;;;6.62;45.34
51315;BME280;65787;59.922;10.742;2023-11-22T02:49:51;101654.41;;;6.57;45.27
51315;BME280;65787;59.922;10.742;2023-11-22T02:52:17;101647.75;;;6.52;44.97
51315;BME280;65787;59.922;10.742;2023-11-22T02:54:43;101643.84;;;6.56;44.38
51315;BME280;65787;59.922;10.742;2023-11-22T02:57:08;101640.59;;;6.52;44.71
51315;BME280;65787;59.922;10.742;2023-11-22T02:59:34;101639.75;;;6.52;43.99
51315;BME280;65787;59.922;10.742;2023-11-22T03:01:59;101646.34;;;6.48;44.78
51315;BME280;65787;59.922;10.742;2023-11-22T03:04:26;101625.00;;;6.48;44.21
51315;BME280;65787;59.922;10.742;2023-11-22T03:06:52;101630.47;;;6.46;45.27
51315;BME280;65787;59.922;10.742;2023-11-22T03:09:17;101621.06;;;6.42;44.55
51315;BME280;65787;59.922;10.742;2023-11-22T03:11:42;101620.78;;;6.45;45.09
51315;BME280;65787;59.922;10.742;2023-11-22T03:14:07;101604.91;;;6.53;44.42
51315;BME280;65787;59.922;10.742;2023-11-22T03:16:34;101598.22;;;6.69;44.67
51315;BME280;65787;59.922;10.742;2023-11-22T03:18:59;101589.91;;;6.72;44.37
51315;BME280;65787;59.922;10.742;2023-11-22T03:21:24;101594.97;;;6.65;44.45
51315;BME280;65787;59.922;10.742;2023-11-22T03:23:53;101606.91;;;6.71;44.72
51315;BME280;65787;59.922;10.742;2023-11-22T03:26:18;101592.28;;;6.75;44.82
51315;BME280;65787;59.922;10.742;2023-11-22T03:28:44;101591.84;;;6.79;44.95
51315;BME280;65787;59.922;10.742;2023-11-22T03:31:10;101596.50;;;6.77;44.96
51315;BME280;65787;59.922;10.742;2023-11-22T03:33:35;101586.81;;;6.76;45.07
51315;BME280;65787;59.922;10.742;2023-11-22T03:36:00;101576.84;;;6.78;45.04
51315;BME280;65787;59.922;10.742;2023-11-22T03:38:29;101576.00;;;6.88;45.14
51315;BME280;65787;59.922;10.742;2023-11-22T03:40:54;101577.97;;;6.86;45.29
51315;BME280;65787;59.922;10.742;2023-11-22T03:43:19;101565.31;;;6.88;45.40
51315;BME280;65787;59.922;10.742;2023-11-22T03:45:45;101560.66;;;6.90;45.38
51315;BME280;65787;59.922;10.742;2023-11-22T03:48:10;101554.75;;;6.86;45.59
51315;BME280;65787;59.922;10.742;2023-11-22T03:50:36;101548.59;;;6.86;45.33
51315;BME280;65787;59.922;10.742;2023-11-22T03:53:01;101553.06;;;6.85;45.73
51315;BME280;65787;59.922;10.742;2023-11-22T03:55:26;101542.66;;;6.92;45.61
51315;BME280;65787;59.922;10.742;2023-11-22T03:57:52;101544.06;;;7.06;45.91
51315;BME280;65787;59.922;10.742;2023-11-22T04:00:17;101540.28;;;6.98;45.40
51315;BME280;65787;59.922;10.742;2023-11-22T04:02:44;101540.66;;;7.04;45.35
51315;BME280;65787;59.922;10.742;2023-11-22T04:05:10;101527.88;;;7.07;45.77
51315;BME280;65787;59.922;10.742;2023-11-22T04:07:36;101529.00;;;7.05;46.20
51315;BME280;65787;59.922;10.742;2023-11-22T04:10:03;101518.19;;;7.06;45.89
51315;BME280;65787;59.922;10.742;2023-11-22T04:12:29;101513.09;;;7.13;45.60
51315;BME280;65787;59.922;10.742;2023-11-22T04:14:54;101506.88;;;7.22;45.86
51315;BME280;65787;59.922;10.742;2023-11-22T04:17:19;101486.66;;;7.20;45.69
51315;BME280;65787;59.922;10.742;2023-11-22T04:19:45;101450.50;;;7.25;46.18
51315;BME280;65787;59.922;10.742;2023-11-22T04:22:10;101429.13;;;7.25;46.36
51315;BME280;65787;59.922;10.742;2023-11-22T04:24:36;101437.13;;;7.25;46.56
51315;BME280;65787;59.922;10.742;2023-11-22T04:27:02;101425.97;;;7.40;46.74
51315;BME280;65787;59.922;10.742;2023-11-22T04:29:28;101415.81;;;7.43;46.27
51315;BME280;65787;59.922;10.742;2023-11-22T04:31:53;101422.97;;;7.43;46.46
51315;BME280;65787;59.922;10.742;2023-11-22T04:34:18;101401.25;;;7.28;47.22
51315;BME280;65787;59.922;10.742;2023-11-22T04:36:43;101408.91;;;7.23;47.47
51315;BME280;65787;59.922;10.742;2023-11-22T04:39:11;101414.19;;;7.32;47.41
51315;BME280;65787;59.922;10.742;2023-11-22T04:41:38;101395.41;;;7.42;47.00
51315;BME280;65787;59.922;10.742;2023-11-22T04:44:03;101396.72;;;7.38;46.74
51315;BME280;65787;59.922;10.742;2023-11-22T04:46:29;101401.59;;;7.43;46.87
51315;BME280;65787;59.922;10.742;2023-11-22T04:48:54;101401.91;;;7.57;46.78
51315;BME280;65787;59.922;10.742;2023-11-22T04:51:20;101412.19;;;7.62;46.76
51315;BME280;65787;59.922;10.742;2023-11-22T04:53:45;101399.50;;;7.64;46.53
51315;BME280;65787;59.922;10.742;2023-11-22T04:56:11;101399.25;;;7.57;46.79
51315;BME280;65787;59.922;10.742;2023-11-22T04:58:36;101388.25;;;7.61;47.25
51315;BME280;65787;59.922;10.742;2023-11-22T05:01:01;101388.41;;;7.59;46.89
51315;BME280;65787;59.922;10.742;2023-11-22T05:03:27;101396.53;;;7.67;46.75
51315;BME280;65787;59.922;10.742;2023-11-22T05:05:52;101390.09;;;7.60;46.79
51315;BME280;65787;59.922;10.742;2023-11-22T05:08:18;101374.59;;;7.64;47.23
51315;BME280;65787;59.922;10.742;2023-11-22T05:10:43;101367.72;;;7.79;46.62
51315;BME280;65787;59.922;10.742;2023-11-22T05:13:09;101386.59;;;7.78;46.79
51315;BME280;65787;59.922;10.742;2023-11-22T05:15:34;101350.16;;;7.59;47.12
51315;BME280;65787;59.922;10.742;2023-11-22T05:17:59;101363.91;;;7.64;47.37
51315;BME280;65787;59.922;10.742;2023-11-22T05:20:25;101344.50;;;7.80;47.06
51315;BME280;65787;59.922;10.742;2023-11-22T05:22:50;101353.03;;;7.83;47.03
51315;BME280;65787;59.922;10.742;2023-11-22T05:25:16;101343.66;;;7.79;47.14
51315;BME280;65787;59.922;10.742;2023-11-22T05:27:41;101318.13;;;7.85;47.02
51315;BME280;65787;59.922;10.742;2023-11-22T05:30:07;101316.09;;;7.79;47.82
51315;BME280;65787;59.922;10.742;2023-11-22T05:32:32;101311.47;;;7.89;47.95
51315;BME280;65787;59.922;10.742;2023-11-22T05:34:58;101298.59;;;7.84;47.82
51315;BME280;65787;59.922;10.742;2023-11-22T05:37:24;101312.09;;;7.83;47.36
51315;BME280;65787;59.922;10.742;2023-11-22T05:39:49;101302.88;;;7.77;48.06
51315;BME280;65787;59.922;10.742;2023-11-22T05:42:15;101280.16;;;7.81;47.68
51315;BME280;65787;59.922;10.742;2023-11-22T05:44:40;101278.25;;;7.91;47.86
51315;BME280;65787;59.922;10.742;2023-11-22T05:47:05;101262.50;;;7.88;47.78
51315;BME280;65787;59.922;10.742;2023-11-22T05:49:33;101245.00;;;7.94;47.44
51315;BME280;65787;59.922;10.742;2023-11-22T05:51:58;101242.81;;;7.89;47.90
51315;BME280;65787;59.922;10.742;2023-11-22T05:54:24;101257.91;;;7.99;47.52
51315;BME280;65787;59.922;10.742;2023-11-22T05:56:49;101245.41;;;8.07;47.86
51315;BME280;65787;59.922;10.742;2023-11-22T05:59:14;101230.03;;;8.09;47.40
51315;BME280;65787;59.922;10.742;2023-11-22T06:01:40;101213.19;;;8.17;47.59
51315;BME280;65787;59.922;10.742;2023-11-22T06:04:05;101210.25;;;8.02;47.71
51315;BME280;65787;59.922;10.742;2023-11-22T06:06:33;101206.06;;;8.00;48.28
51315;BME280;65787;59.922;10.742;2023-11-22T06:08:58;101192.91;;;8.06;48.03
51315;BME280;65787;59.922;10.742;2023-11-22T06:11:25;101199.94;;;8.07;48.28
51315;BME280;65787;59.922;10.742;2023-11-22T06:13:50;101178.69;;;8.06;48.13
51315;BME280;65787;59.922;10.742;2023-11-22T06:16:16;101176.91;;;8.14;48.30
51315;BME280;65787;59.922;10.742;2023-11-22T06:18:41;101171.03;;;8.11;48.84
51315;BME280;65787;59.922;10.742;2023-11-22T06:21:09;101169.88;;;8.13;48.51
51315;BME280;65787;59.922;10.742;2023-11-22T06:23:34;101166.41;;;8.21;48.54
51315;BME280;65787;59.922;10.742;2023-11-22T06:25:59;101141.31;;;8.22;48.73
51315;BME280;65787;59.922;10.742;2023-11-22T06:28:25;101140.94;;;8.17;48.56
51315;BME280;65787;59.922;10.742;2023-11-22T06:30:50;101129.78;;;8.22;48.72
51315;BME280;65787;59.922;10.742;2023-11-22T06:33:16;101126.59;;;8.26;49.03
51315;BME280;65787;59.922;10.742;2023-11-22T06:35:41;101112.75;;;8.31;48.75
51315;BME280;65787;59.922;10.742;2023-11-22T06:38:07;101108.91;;;8.33;49.12
51315;BME280;65787;59.922;10.742;2023-11-22T06:40:33;101112.94;;;8.38;49.02
51315;BME280;65787;59.922;10.742;2023-11-22T06:42:58;101108.63;;;8.45;49.47
51315;BME280;65787;59.922;10.742;2023-11-22T06:45:24;101104.91;;;8.38;49.05
51315;BME280;65787;59.922;10.742;2023-11-22T06:47:49;101106.13;;;8.43;49.21
51315;BME280;65787;59.922;10.742;2023-11-22T06:50:15;101096.25;;;8.52;48.89
51315;BME280;65787;59.922;10.742;2023-11-22T06:52:41;101083.72;;;8.52;48.77
51315;BME280;65787;59.922;10.742;2023-11-22T06:55:07;101068.34;;;8.63;48.96
51315;BME280;65787;59.922;10.742;2023-11-22T06:57:36;101063.50;;;8.58;49.18
51315;BME280;65787;59.922;10.742;2023-11-22T07:00:01;101048.75;;;8.54;49.08
51315;BME280;65787;59.922;10.742;2023-11-22T07:02:30;101036.22;;;8.55;49.47
51315;BME280;65787;59.922;10.742;2023-11-22T07:04:55;101018.97;;;8.49;49.83
51315;BME280;65787;59.922;10.742;2023-11-22T07:07:21;101022.28;;;8.34;50.13
51315;BME280;65787;59.922;10.742;2023-11-22T07:09:46;101002.41;;;8.45;49.75
51315;BME280;65787;59.922;10.742;2023-11-22T07:12:11;101002.59;;;8.60;49.55
51315;BME280;65787;59.922;10.742;2023-11-22T07:14:43;100991.53;;;8.71;49.56
51315;BME280;65787;59.922;10.742;2023-11-22T07:17:08;100993.53;;;8.53;49.99
51315;BME280;65787;59.922;10.742;2023-11-22T07:19:34;100980.16;;;8.69;50.12
51315;BME280;65787;59.922;10.742;2023-11-22T07:22:06;100976.97;;;8.82;49.86
51315;BME280;65787;59.922;10.742;2023-11-22T07:24:41;100963.41;;;8.76;50.33
51315;BME280;65787;59.922;10.742;2023-11-22T07:27:09;100956.88;;;8.86;50.22
51315;BME280;65787;59.922;10.742;2023-11-22T07:29:37;100968.91;;;8.90;49.53
51315;BME280;65787;59.922;10.742;2023-11-22T07:32:02;100952.84;;;8.90;50.15
51315;BME280;65787;59.922;10.742;2023-11-22T07:34:28;100941.28;;;8.90;50.64
51315;BME280;65787;59.922;10.742;2023-11-22T07:36:53;100943.66;;;8.77;51.01
51315;BME280;65787;59.922;10.742;2023-11-22T07:39:19;100925.25;;;8.74;51.22
51315;BME280;65787;59.922;10.742;2023-11-22T07:41:45;100928.25;;;8.70;51.96
51315;BME280;65787;59.922;10.742;2023-11-22T07:44:14;100928.28;;;8.54;52.53
51315;BME280;65787;59.922;10.742;2023-11-22T07:46:41;100930.28;;;8.68;52.77
51315;BME280;65787;59.922;10.742;2023-11-22T07:49:08;100925.09;;;8.67;52.82
51315;BME280;65787;59.922;10.742;2023-11-22T07:51:34;100904.66;;;8.74;52.64
51315;BME280;65787;59.922;10.742;2023-11-22T07:54:00;100903.69;;;8.59;53.23
51315;BME280;65787;59.922;10.742;2023-11-22T07:56:25;100899.69;;;8.55;53.47
51315;BME280;65787;59.922;10.742;2023-11-22T07:58:50;100881.75;;;8.63;53.44
51315;BME280;65787;59.922;10.742;2023-11-22T08:01:15;100873.19;;;8.76;54.01
51315;BME280;65787;59.922;10.742;2023-11-22T08:03:41;100870.88;;;8.65;54.35
51315;BME280;65787;59.922;10.742;2023-11-22T08:06:11;100862.84;;;8.73;54.65
51315;BME280;65787;59.922;10.742;2023-11-22T08:08:36;100880.03;;;8.87;54.63
51315;BME280;65787;59.922;10.742;2023-11-22T08:11:04;100849.94;;;8.77;54.44
51315;BME280;65787;59.922;10.742;2023-11-22T08:13:30;100831.47;;;8.90;54.20
51315;BME280;65787;59.922;10.742;2023-11-22T08:15:55;100831.31;;;8.91;54.41
51315;BME280;65787;59.922;10.742;2023-11-22T08:18:21;100833.78;;;8.93;53.51
51315;BME280;65787;59.922;10.742;2023-11-22T08:20:47;100819.75;;;8.91;53.67
51315;BME280;65787;59.922;10.742;2023-11-22T08:23:12;100813.00;;;8.95;54.39
51315;BME280;65787;59.922;10.742;2023-11-22T08:25:40;100803.28;;;9.02;54.35
51315;BME280;65787;59.922;10.742;2023-11-22T08:28:06;100794.41;;;9.02;53.38
51315;BME280;65787;59.922;10.742;2023-11-22T08:30:33;100772.31;;;9.00;54.24
51315;BME280;65787;59.922;10.742;2023-11-22T08:33:01;100779.41;;;8.93;54.49
51315;BME280;65787;59.922;10.742;2023-11-22T08:35:27;100772.97;;;9.02;54.01
51315;BME280;65787;59.922;10.742;2023-11-22T08:37:52;100773.47;;;9.05;54.36
51315;BME280;65787;59.922;10.742;2023-11-22T08:40:18;100772.59;;;9.13;53.78
51315;BME280;65787;59.922;10.742;2023-11-22T08:42:47;100757.16;;;9.15;54.32
51315;BME280;65787;59.922;10.742;2023-11-22T08:45:13;100754.13;;;9.18;53.78
51315;BME280;65787;59.922;10.742;2023-11-22T08:47:41;100736.38;;;9.17;54.20
51315;BME280;65787;59.922;10.742;2023-11-22T08:50:07;100736.50;;;9.24;54.25
51315;BME280;65787;59.922;10.742;2023-11-22T08:52:33;100719.13;;;9.20;54.00
51315;BME280;65787;59.922;10.742;2023-11-22T08:54:58;100705.47;;;9.29;54.09
51315;BME280;65787;59.922;10.742;2023-11-22T08:57:25;100676.41;;;9.41;53.86
51315;BME280;65787;59.922;10.742;2023-11-22T08:59:51;100656.06;;;9.47;52.93
51315;BME280;65787;59.922;10.742;2023-11-22T09:02:16;100652.53;;;9.32;53.68
51315;BME280;65787;59.922;10.742;2023-11-22T09:04:42;100640.34;;;9.29;53.53
51315;BME280;65787;59.922;10.742;2023-11-22T09:07:08;100625.38;;;9.35;52.72
51315;BME280;65787;59.922;10.742;2023-11-22T09:09:35;100612.16;;;9.33;53.57
51315;BME280;65787;59.922;10.742;2023-11-22T09:12:01;100596.88;;;9.19;53.82
51315;BME280;65787;59.922;10.742;2023-11-22T09:14:26;100577.94;;;9.20;53.30
51315;BME280;65787;59.922;10.742;2023-11-22T09:16:51;100569.00;;;9.43;53.82
51315;BME280;65787;59.922;10.742;2023-11-22T09:19:22;100547.06;;;9.24;54.19
51315;BME280;65787;59.922;10.742;2023-11-22T09:21:51;100534.31;;;9.26;53.72
51315;BME280;65787;59.922;10.742;2023-11-22T09:24:16;100531.66;;;9.41;53.80
51315;BME280;65787;59.922;10.742;2023-11-22T09:26:41;100515.84;;;9.46;53.60
51315;BME280;65787;59.922;10.742;2023-11-22T09:29:07;100496.81;;;9.41;53.61
51315;BME280;65787;59.922;10.742;2023-11-22T09:31:33;100477.13;;;9.49;53.97
51315;BME280;65787;59.922;10.742;2023-11-22T09:33:58;100464.00;;;9.39;54.07
51315;BME280;65787;59.922;10.742;2023-11-22T09:36:23;100455.47;;;9.50;54.01
51315;BME280;65787;59.922;10.742;2023-11-22T09:38:52;100457.44;;;9.57;52.90
51315;BME280;65787;59.922;10.742;2023-11-22T09:41:17;100459.56;;;9.46;54.07
51315;BME280;65787;59.922;10.742;2023-11-22T09:43:43;100455.13;;;9.54;53.81
51315;BME280;65787;59.922;10.742;2023-11-22T09:46:11;100434.88;;;9.51;54.36
51315;BME280;65787;59.922;10.742;2023-11-22T09:48:38;100439.84;;;9.54;54.30
51315;BME280;65787;59.922;10.742;2023-11-22T09:51:04;100430.63;;;9.57;53.98
51315;BME280;65787;59.922;10.742;2023-11-22T09:53:34;100416.38;;;9.56;54.04
51315;BME280;65787;59.922;10.742;2023-11-22T09:56:01;100443.81;;;9.58;54.10
51315;BME280;65787;59.922;10.742;2023-11-22T09:58:31;100440.75;;;9.76;53.74
51315;BME280;65787;59.922;10.742;2023-11-22T10:00:58;100414.81;;;9.83;53.04
51315;BME280;65787;59.922;10.742;2023-11-22T10:03:26;100397.91;;;9.83;53.08
51315;BME280;65787;59.922;10.742;2023-11-22T10:05:51;100387.00;;;9.84;53.09
51315;BME280;65787;59.922;10.742;2023-11-22T10:08:17;100375.19;;;9.79;53.80
51315;BME280;65787;59.922;10.742;2023-11-22T10:10:43;100361.38;;;9.82;53.38
51315;BME280;65787;59.922;10.742;2023-11-22T10:13:13;100340.38;;;9.85;53.01
51315;BME280;65787;59.922;10.742;2023-11-22T10:15:38;100330.00;;;9.82;53.98
51315;BME280;65787;59.922;10.742;2023-11-22T10:18:03;100323.56;;;9.98;52.12
51315;BME280;65787;59.922;10.742;2023-11-22T10:20:36;100328.47;;;9.95;52.88
51315;BME280;65787;59.922;10.742;2023-11-22T10:23:02;100295.81;;;9.84;53.11
51315;BME280;65787;59.922;10.742;2023-11-22T10:25:28;100296.03;;;9.89;52.15
51315;BME280;65787;59.922;10.742;2023-11-22T10:27:54;100288.25;;;9.95;52.51
51315;BME280;65787;59.922;10.742;2023-11-22T10:30:20;100289.75;;;10.04;52.42
51315;BME280;65787;59.922;10.742;2023-11-22T10:32:45;100278.59;;;10.00;52.03
51315;BME280;65787;59.922;10.742;2023-11-22T10:35:11;100277.50;;;9.95;51.56
51315;BME280;65787;59.922;10.742;2023-11-22T10:37:39;100267.38;;;9.90;52.47
51315;BME280;65787;59.922;10.742;2023-11-22T10:40:05;100265.63;;;9.82;52.25
51315;BME280;65787;59.922;10.742;2023-11-22T10:42:31;100261.22;;;9.96;52.22
51315;BME280;65787;59.922;10.742;2023-11-22T10:44:58;100244.00;;;9.84;52.01
51315;BME280;65787;59.922;10.742;2023-11-22T10:47:28;100241.84;;;10.01;51.51
51315;BME280;65787;59.922;10.742;2023-11-22T10:49:55;100228.59;;;9.93;51.27
51315;BME280;65787;59.922;10.742;2023-11-22T10:52:21;100229.56;;;10.13;50.77
51315;BME280;65787;59.922;10.742;2023-11-22T10:54:50;100200.91;;;10.20;51.03
51315;BME280;65787;59.922;10.742;2023-11-22T10:57:20;100199.81;;;10.08;51.46
51315;BME280;65787;59.922;10.742;2023-11-22T10:59:50;100196.53;;;10.13;51.13
51315;BME280;65787;59.922;10.742;2023-11-22T11:02:18;100184.91;;;10.34;50.28
51315;BME280;65787;59.922;10.742;2023-11-22T11:04:47;100168.31;;;10.23;50.76
51315;BME280;65787;59.922;10.742;2023-11-22T11:07:16;100151.78;;;10.20;50.42
51315;BME280;65787;59.922;10.742;2023-11-22T11:09:42;100148.38;;;10.33;50.50
51315;BME280;65787;59.922;10.742;2023-11-22T11:12:08;100147.06;;;10.28;50.18
51315;BME280;65787;59.922;10.742;2023-11-22T11:14:34;100142.59;;;10.36;50.78
51315;BME280;65787;59.922;10.742;2023-11-22T11:17:00;100125.59;;;10.28;50.51
51315;BME280;65787;59.922;10.742;2023-11-22T11:19:26;100132.19;;;10.26;51.13
51315;BME280;65787;59.922;10.742;2023-11-22T11:21:52;100128.84;;;10.11;51.06
51315;BME280;65787;59.922;10.742;2023-11-22T11:24:19;100106.38;;;10.25;51.32
51315;BME280;65787;59.922;10.742;2023-11-22T11:26:48;100107.88;;;10.34;50.42
51315;BME280;65787;59.922;10.742;2023-11-22T11:29:38;100104.13;;;10.22;50.82
51315;BME280;65787;59.922;10.742;2023-11-22T11:32:11;100095.44;;;10.26;50.98
51315;BME280;65787;59.922;10.742;2023-11-22T11:34:59;100062.69;;;10.38;50.55
51315;BME280;65787;59.922;10.742;2023-11-22T11:37:25;100061.28;;;10.42;50.53
51315;BME280;65787;59.922;10.742;2023-11-22T11:39:50;100050.09;;;10.32;50.74
51315;BME280;65787;59.922;10.742;2023-11-22T11:42:15;100043.94;;;10.51;50.15
51315;BME280;65787;59.922;10.742;2023-11-22T11:44:51;100020.63;;;10.65;50.05
51315;BME280;65787;59.922;10.742;2023-11-22T11:47:17;100016.25;;;10.64;50.79
51315;BME280;65787;59.922;10.742;2023-11-22T11:49:43;99996.47;;;10.72;50.15
51315;BME280;65787;59.922;10.742;2023-11-22T11:52:08;100002.00;;;10.50;50.34
51315;BME280;65787;59.922;10.742;2023-11-22T11:54:34;99996.25;;;10.67;50.58
51315;BME280;65787;59.922;10.742;2023-11-22T11:57:00;99983.84;;;10.59;50.47
51315;BME280;65787;59.922;10.742;2023-11-22T11:59:26;99959.88;;;10.57;49.85
51315;BME280;65787;59.922;10.742;2023-11-22T12:01:55;99969.41;;;10.67;50.50
51315;BME280;65787;59.922;10.742;2023-11-22T12:04:23;99954.31;;;10.65;50.11
51315;BME280;65787;59.922;10.742;2023-11-22T12:06:49;99951.00;;;10.63;50.06
51315;BME280;65787;59.922;10.742;2023-11-22T12:09:21;99936.97;;;10.68;50.23
51315;BME280;65787;59.922;10.742;2023-11-22T12:11:47;99926.44;;;10.67;48.96
51315;BME280;65787;59.922;10.742;2023-11-22T12:14:12;99907.22;;;10.63;50.20
51315;BME280;65787;59.922;10.742;2023-11-22T12:16:37;99889.66;;;10.54;50.18
51315;BME280;65787;59.922;10.742;2023-11-22T12:19:03;99886.16;;;10.60;49.93
51315;BME280;65787;59.922;10.742;2023-11-22T12:21:29;99853.47;;;10.76;49.98
51315;BME280;65787;59.922;10.742;2023-11-22T12:23:55;99832.25;;;10.68;49.98
51315;BME280;65787;59.922;10.742;2023-11-22T12:26:21;99826.63;;;10.83;49.88
51315;BME280;65787;59.922;10.742;2023-11-22T12:28:47;99802.84;;;10.80;49.61
51315;BME280;65787;59.922;10.742;2023-11-22T12:31:14;99806.41;;;10.74;49.73
51315;BME280;65787;59.922;10.742;2023-11-22T12:33:42;99796.88;;;10.78;49.77
51315;BME280;65787;59.922;10.742;2023-11-22T12:36:08;99787.75;;;10.79;49.95
51315;BME280;65787;59.922;10.742;2023-11-22T12:38:42;99783.25;;;10.73;49.17
51315;BME280;65787;59.922;10.742;2023-11-22T12:41:07;99757.63;;;10.77;50.18
51315;BME280;65787;59.922;10.742;2023-11-22T12:43:33;99757.25;;;10.67;49.91
51315;BME280;65787;59.922;10.742;2023-11-22T12:46:02;99745.47;;;10.68;50.77